sensor_id;sensor_type;location;lat;lon;timestamp;pressure;altitude;pressure_sealevel;temperature;humidity
70256;BME280;57669;52.624;-1.688;2023-04-03T00:01:23;102604.05;;;8.48;36.09
70256;BME280;57669;52.624;-1.688;2023-04-03T00:03:48;102607.43;;;7.17;36.98
70256;BME280;57669;52.624;-1.688;2023-04-03T00:06:14;102608.40;;;7.01;37.44
70256;BME280;57669;52.624;-1.688;2023-04-03T00:08:40;102616.13;;;5.56;39.61
70256;BME280;57669;52.624;-1.688;2023-04-03T00:11:04;102615.93;;;5.85;38.43
70256;BME280;57669;52.624;-1.688;2023-04-03T00:13:29;102617.67;;;6.06;38.00
70256;BME280;57669;52.624;-1.688;2023-04-03T00:15:54;102613.82;;;5.53;39.01
70256;BME280;57669;52.624;-1.688;2023-04-03T00:18:20;102608.85;;;4.72;40.25
70256;BME280;57669;52.624;-1.688;2023-04-03T00:20:45;102607.71;;;4.40;40.96
70256;BME280;57669;52.624;-1.688;2023-04-03T00:23:10;102610.45;;;6.24;38.58
70256;BME280;57669;52.624;-1.688;2023-04-03T00:25:36;102606.69;;;6.47;37.99
70256;BME280;57669;52.624;-1.688;2023-04-03T00:28:01;102607.53;;;5.84;38.95
70256;BME280;57669;52.624;-1.688;2023-04-03T00:30:27;102605.06;;;6.96;37.41
70256;BME280;57669;52.624;-1.688;2023-04-03T00:32:52;102605.23;;;4.40;41.22
70256;BME280;57669;52.624;-1.688;2023-04-03T00:35:19;102602.90;;;5.84;38.80
70256;BME280;57669;52.624;-1.688;2023-04-03T00:37:43;102600.61;;;6.18;38.89
70256;BME280;57669;52.624;-1.688;2023-04-03T00:40:09;102596.36;;;4.63;40.38
70256;BME280;57669;52.624;-1.688;2023-04-03T00:42:33;102601.48;;;5.56;39.70
70256;BME280;57669;52.624;-1.688;2023-04-03T00:47:24;102596.88;;;4.60;41.05
70256;BME280;57669;52.624;-1.688;2023-04-03T00:49:50;102601.31;;;3.24;42.63
70256;BME280;57669;52.624;-1.688;2023-04-03T00:52:16;102595.37;;;3.92;42.20
70256;BME280;57669;52.624;-1.688;2023-04-03T00:54:40;102594.86;;;4.50;40.90
70256;BME280;57669;52.624;-1.688;2023-04-03T00:57:06;102602.89;;;5.32;40.13
70256;BME280;57669;52.624;-1.688;2023-04-03T00:59:33;102606.13;;;3.75;42.29
70256;BME280;57669;52.624;-1.688;2023-04-03T01:01:56;102600.71;;;4.16;41.71
70256;BME280;57669;52.624;-1.688;2023-04-03T01:04:26;102598.72;;;5.00;40.36
70256;BME280;57669;52.624;-1.688;2023-04-03T01:06:46;102600.35;;;5.06;40.20
70256;BME280;57669;52.624;-1.688;2023-04-03T01:09:12;102604.63;;;5.32;39.76
70256;BME280;57669;52.624;-1.688;2023-04-03T01:11:37;102596.54;;;4.86;39.82
70256;BME280;57669;52.624;-1.688;2023-04-03T01:14:02;102603.14;;;3.28;42.78
70256;BME280;57669;52.624;-1.688;2023-04-03T01:16:28;102602.14;;;4.06;41.61
70256;BME280;57669;52.624;-1.688;2023-04-03T01:18:54;102598.18;;;4.82;40.74
70256;BME280;57669;52.624;-1.688;2023-04-03T01:23:54;102598.22;;;3.55;42.16
70256;BME280;57669;52.624;-1.688;2023-04-03T01:26:10;102603.92;;;3.76;41.87
70256;BME280;57669;52.624;-1.688;2023-04-03T01:28:36;102600.23;;;5.20;39.66
70256;BME280;57669;52.624;-1.688;2023-04-03T01:31:06;102601.30;;;3.65;42.43
70256;BME280;57669;52.624;-1.688;2023-04-03T01:33:27;102598.34;;;5.29;39.10
70256;BME280;57669;52.624;-1.688;2023-04-03T01:35:51;102596.37;;;4.10;41.09
70256;BME280;57669;52.624;-1.688;2023-04-03T01:38:17;102596.74;;;3.53;42.68
70256;BME280;57669;52.624;-1.688;2023-04-03T01:40:43;102591.16;;;3.52;43.36
70256;BME280;57669;52.624;-1.688;2023-04-03T01:43:08;102585.36;;;2.76;44.38
70256;BME280;57669;52.624;-1.688;2023-04-03T01:45:33;102588.74;;;3.72;42.58
70256;BME280;57669;52.624;-1.688;2023-04-03T01:48:13;102584.51;;;3.92;41.43
70256;BME280;57669;52.624;-1.688;2023-04-03T01:50:24;102584.17;;;4.65;41.34
70256;BME280;57669;52.624;-1.688;2023-04-03T01:52:49;102592.54;;;2.59;44.25
70256;BME280;57669;52.624;-1.688;2023-04-03T01:55:15;102591.31;;;4.26;41.41
70256;BME280;57669;52.624;-1.688;2023-04-03T01:57:40;102588.57;;;4.04;41.28
70256;BME280;57669;52.624;-1.688;2023-04-03T02:00:06;102588.70;;;4.45;40.46
70256;BME280;57669;52.624;-1.688;2023-04-03T02:02:30;102588.46;;;3.13;42.75
70256;BME280;57669;52.624;-1.688;2023-04-03T02:04:56;102591.80;;;4.12;41.02
70256;BME280;57669;52.624;-1.688;2023-04-03T02:07:21;102590.21;;;4.17;41.49
70256;BME280;57669;52.624;-1.688;2023-04-03T02:09:49;102593.76;;;3.57;42.88
70256;BME280;57669;52.624;-1.688;2023-04-03T02:12:12;102591.75;;;3.06;43.22
70256;BME280;57669;52.624;-1.688;2023-04-03T02:14:37;102593.52;;;3.88;41.77
70256;BME280;57669;52.624;-1.688;2023-04-03T02:19:28;102590.47;;;5.43;39.47
70256;BME280;57669;52.624;-1.688;2023-04-03T02:21:54;102587.74;;;4.56;40.13
70256;BME280;57669;52.624;-1.688;2023-04-03T02:24:19;102588.68;;;4.87;40.13
70256;BME280;57669;52.624;-1.688;2023-04-03T02:26:44;102591.06;;;5.13;39.54
70256;BME280;57669;52.624;-1.688;2023-04-03T02:29:09;102589.49;;;4.09;40.65
70256;BME280;57669;52.624;-1.688;2023-04-03T02:34:00;102590.11;;;5.49;38.99
70256;BME280;57669;52.624;-1.688;2023-04-03T02:36:26;102586.70;;;4.96;39.34
70256;BME280;57669;52.624;-1.688;2023-04-03T02:38:51;102586.72;;;4.86;39.44
70256;BME280;57669;52.624;-1.688;2023-04-03T02:41:17;102583.12;;;4.64;39.93
70256;BME280;57669;52.624;-1.688;2023-04-03T02:43:42;102579.28;;;4.50;40.37
70256;BME280;57669;52.624;-1.688;2023-04-03T02:46:08;102577.68;;;4.61;39.63
70256;BME280;57669;52.624;-1.688;2023-04-03T02:48:33;102575.16;;;5.04;39.26
70256;BME280;57669;52.624;-1.688;2023-04-03T02:50:58;102578.10;;;5.09;38.98
70256;BME280;57669;52.624;-1.688;2023-04-03T02:53:24;102577.84;;;4.92;39.39
70256;BME280;57669;52.624;-1.688;2023-04-03T02:55:49;102578.07;;;4.00;40.11
70256;BME280;57669;52.624;-1.688;2023-04-03T02:58:15;102578.23;;;4.06;40.56
70256;BME280;57669;52.624;-1.688;2023-04-03T03:00:40;102580.73;;;3.79;40.34
70256;BME280;57669;52.624;-1.688;2023-04-03T03:03:05;102579.94;;;3.95;41.26
70256;BME280;57669;52.624;-1.688;2023-04-03T03:05:31;102577.10;;;3.96;40.87
70256;BME280;57669;52.624;-1.688;2023-04-03T03:07:56;102576.70;;;3.94;40.86
70256;BME280;57669;52.624;-1.688;2023-04-03T03:10:22;102578.45;;;3.77;41.77
70256;BME280;57669;52.624;-1.688;2023-04-03T03:12:47;102569.49;;;4.78;39.63
70256;BME280;57669;52.624;-1.688;2023-04-03T03:15:12;102571.02;;;4.52;39.81
70256;BME280;57669;52.624;-1.688;2023-04-03T03:17:37;102569.64;;;3.21;41.35
70256;BME280;57669;52.624;-1.688;2023-04-03T03:20:02;102575.25;;;5.26;38.43
70256;BME280;57669;52.624;-1.688;2023-04-03T03:22:28;102570.76;;;4.55;39.62
70256;BME280;57669;52.624;-1.688;2023-04-03T03:24:54;102570.69;;;4.98;39.24
70256;BME280;57669;52.624;-1.688;2023-04-03T03:27:29;102570.15;;;3.96;40.51
70256;BME280;57669;52.624;-1.688;2023-04-03T03:29:44;102571.03;;;3.44;41.69
70256;BME280;57669;52.624;-1.688;2023-04-03T03:32:10;102568.70;;;4.75;39.72
70256;BME280;57669;52.624;-1.688;2023-04-03T03:34:35;102567.88;;;4.70;39.67
70256;BME280;57669;52.624;-1.688;2023-04-03T03:37:01;102572.83;;;2.24;43.12
70256;BME280;57669;52.624;-1.688;2023-04-03T03:39:27;102572.70;;;4.47;39.73
70256;BME280;57669;52.624;-1.688;2023-04-03T03:41:52;102572.88;;;3.81;40.47
70256;BME280;57669;52.624;-1.688;2023-04-03T03:44:17;102570.50;;;2.29;43.14
70256;BME280;57669;52.624;-1.688;2023-04-03T03:46:43;102568.46;;;2.43;43.16
70256;BME280;57669;52.624;-1.688;2023-04-03T03:49:08;102568.83;;;2.76;42.50
70256;BME280;57669;52.624;-1.688;2023-04-03T03:51:34;102577.03;;;1.01;45.38
70256;BME280;57669;52.624;-1.688;2023-04-03T03:54:00;102576.56;;;1.31;45.76
70256;BME280;57669;52.624;-1.688;2023-04-03T03:56:25;102574.75;;;2.38;43.77
70256;BME280;57669;52.624;-1.688;2023-04-03T03:58:51;102576.12;;;2.64;43.65
70256;BME280;57669;52.624;-1.688;2023-04-03T04:01:16;102572.48;;;2.68;43.34
70256;BME280;57669;52.624;-1.688;2023-04-03T04:03:42;102574.13;;;3.23;43.02
70256;BME280;57669;52.624;-1.688;2023-04-03T04:06:07;102573.60;;;3.61;40.99
70256;BME280;57669;52.624;-1.688;2023-04-03T04:08:33;102575.02;;;2.80;41.88
70256;BME280;57669;52.624;-1.688;2023-04-03T04:10:58;102572.36;;;3.35;41.24
70256;BME280;57669;52.624;-1.688;2023-04-03T04:13:24;102570.29;;;2.71;42.07
70256;BME280;57669;52.624;-1.688;2023-04-03T04:15:49;102567.15;;;1.97;43.46
70256;BME280;57669;52.624;-1.688;2023-04-03T04:18:15;102567.33;;;3.69;41.02
70256;BME280;57669;52.624;-1.688;2023-04-03T04:20:40;102570.38;;;3.98;40.25
70256;BME280;57669;52.624;-1.688;2023-04-03T04:23:06;102571.18;;;2.95;41.74
70256;BME280;57669;52.624;-1.688;2023-04-03T04:25:31;102572.61;;;2.05;43.78
70256;BME280;57669;52.624;-1.688;2023-04-03T04:27:56;102571.17;;;2.70;41.85
70256;BME280;57669;52.624;-1.688;2023-04-03T04:30:22;102568.24;;;3.08;41.84
70256;BME280;57669;52.624;-1.688;2023-04-03T04:32:47;102568.07;;;3.03;41.32
70256;BME280;57669;52.624;-1.688;2023-04-03T04:35:13;102564.35;;;3.32;41.24
70256;BME280;57669;52.624;-1.688;2023-04-03T04:37:39;102560.11;;;2.14;43.06
70256;BME280;57669;52.624;-1.688;2023-04-03T04:40:05;102567.01;;;0.76;46.42
70256;BME280;57669;52.624;-1.688;2023-04-03T04:42:30;102564.15;;;0.49;47.27
70256;BME280;57669;52.624;-1.688;2023-04-03T04:44:55;102561.15;;;2.31;45.14
70256;BME280;57669;52.624;-1.688;2023-04-03T04:47:31;102561.00;;;2.43;44.17
70256;BME280;57669;52.624;-1.688;2023-04-03T04:49:46;102561.36;;;3.48;42.18
70256;BME280;57669;52.624;-1.688;2023-04-03T04:52:11;102571.57;;;0.83;46.46
70256;BME280;57669;52.624;-1.688;2023-04-03T04:54:37;102569.13;;;1.87;45.15
70256;BME280;57669;52.624;-1.688;2023-04-03T04:57:03;102567.77;;;1.00;46.69
70256;BME280;57669;52.624;-1.688;2023-04-03T04:59:28;102563.97;;;0.13;48.08
70256;BME280;57669;52.624;-1.688;2023-04-03T05:01:53;102561.13;;;3.94;42.56
70256;BME280;57669;52.624;-1.688;2023-04-03T05:04:18;102559.64;;;3.06;43.50
70256;BME280;57669;52.624;-1.688;2023-04-03T05:06:44;102570.25;;;1.38;45.81
70256;BME280;57669;52.624;-1.688;2023-04-03T05:09:10;102563.45;;;3.13;42.85
70256;BME280;57669;52.624;-1.688;2023-04-03T05:11:35;102572.84;;;0.40;47.76
70256;BME280;57669;52.624;-1.688;2023-04-03T05:14:01;102566.03;;;3.09;43.51
70256;BME280;57669;52.624;-1.688;2023-04-03T05:16:27;102570.27;;;3.68;41.73
70256;BME280;57669;52.624;-1.688;2023-04-03T05:18:52;102571.07;;;3.03;42.87
70256;BME280;57669;52.624;-1.688;2023-04-03T05:21:18;102572.71;;;2.13;43.94
70256;BME280;57669;52.624;-1.688;2023-04-03T05:23:43;102575.82;;;2.52;44.50
70256;BME280;57669;52.624;-1.688;2023-04-03T05:26:09;102575.46;;;4.61;41.35
70256;BME280;57669;52.624;-1.688;2023-04-03T05:28:34;102577.11;;;3.21;42.68
70256;BME280;57669;52.624;-1.688;2023-04-03T05:31:00;102575.65;;;4.85;40.69
70256;BME280;57669;52.624;-1.688;2023-04-03T05:33:25;102581.87;;;3.06;42.89
70256;BME280;57669;52.624;-1.688;2023-04-03T05:35:50;102582.84;;;2.97;43.08
70256;BME280;57669;52.624;-1.688;2023-04-03T05:38:16;102582.31;;;4.03;42.10
70256;BME280;57669;52.624;-1.688;2023-04-03T05:40:41;102588.78;;;3.19;43.71
70256;BME280;57669;52.624;-1.688;2023-04-03T05:43:06;102588.18;;;4.60;41.59
70256;BME280;57669;52.624;-1.688;2023-04-03T05:45:32;102592.17;;;2.95;44.26
70256;BME280;57669;52.624;-1.688;2023-04-03T05:47:58;102586.40;;;4.38;41.22
70256;BME280;57669;52.624;-1.688;2023-04-03T05:50:24;102599.44;;;1.23;47.83
70256;BME280;57669;52.624;-1.688;2023-04-03T05:52:51;102590.06;;;3.65;43.88
70256;BME280;57669;52.624;-1.688;2023-04-03T05:55:14;102587.54;;;3.33;43.99
70256;BME280;57669;52.624;-1.688;2023-04-03T05:57:39;102592.67;;;3.21;44.16
70256;BME280;57669;52.624;-1.688;2023-04-03T06:00:06;102594.98;;;3.62;43.79
70256;BME280;57669;52.624;-1.688;2023-04-03T06:02:30;102587.69;;;2.58;45.01
70256;BME280;57669;52.624;-1.688;2023-04-03T06:04:56;102589.13;;;3.08;44.38
70256;BME280;57669;52.624;-1.688;2023-04-03T06:07:24;102591.44;;;3.24;44.13
70256;BME280;57669;52.624;-1.688;2023-04-03T06:09:48;102594.73;;;4.39;43.59
70256;BME280;57669;52.624;-1.688;2023-04-03T06:12:13;102598.20;;;3.20;45.05
70256;BME280;57669;52.624;-1.688;2023-04-03T06:14:39;102600.14;;;5.31;41.51
70256;BME280;57669;52.624;-1.688;2023-04-03T06:19:31;102598.22;;;4.70;41.93
70256;BME280;57669;52.624;-1.688;2023-04-03T06:21:56;102595.30;;;4.95;42.13
70256;BME280;57669;52.624;-1.688;2023-04-03T06:24:23;102596.06;;;2.96;45.58
70256;BME280;57669;52.624;-1.688;2023-04-03T06:26:48;102592.58;;;4.45;42.81
70256;BME280;57669;52.624;-1.688;2023-04-03T06:29:13;102591.65;;;4.05;42.96
70256;BME280;57669;52.624;-1.688;2023-04-03T06:31:39;102594.80;;;6.21;40.38
70256;BME280;57669;52.624;-1.688;2023-04-03T06:34:04;102592.87;;;6.00;40.06
70256;BME280;57669;52.624;-1.688;2023-04-03T06:36:30;102592.87;;;5.23;40.74
70256;BME280;57669;52.624;-1.688;2023-04-03T06:38:56;102589.67;;;7.10;38.58
70256;BME280;57669;52.624;-1.688;2023-04-03T06:41:21;102588.30;;;7.01;38.76
70256;BME280;57669;52.624;-1.688;2023-04-03T06:43:47;102590.36;;;7.22;38.13
70256;BME280;57669;52.624;-1.688;2023-04-03T06:46:15;102592.31;;;5.74;39.75
70256;BME280;57669;52.624;-1.688;2023-04-03T06:48:37;102587.76;;;6.53;39.58
70256;BME280;57669;52.624;-1.688;2023-04-03T06:51:03;102593.51;;;5.45;41.00
70256;BME280;57669;52.624;-1.688;2023-04-03T06:53:28;102596.72;;;6.07;40.38
70256;BME280;57669;52.624;-1.688;2023-04-03T06:55:54;102594.95;;;4.76;42.43
70256;BME280;57669;52.624;-1.688;2023-04-03T06:58:19;102589.65;;;3.97;44.40
70256;BME280;57669;52.624;-1.688;2023-04-03T07:00:45;102588.50;;;4.32;44.42
70256;BME280;57669;52.624;-1.688;2023-04-03T07:03:10;102591.46;;;3.53;45.26
70256;BME280;57669;52.624;-1.688;2023-04-03T07:05:35;102592.29;;;3.08;47.01
70256;BME280;57669;52.624;-1.688;2023-04-03T07:08:01;102589.98;;;3.31;46.78
70256;BME280;57669;52.624;-1.688;2023-04-03T07:10:27;102590.75;;;1.62;50.49
70256;BME280;57669;52.624;-1.688;2023-04-03T07:12:52;102592.62;;;1.51;50.73
70256;BME280;57669;52.624;-1.688;2023-04-03T07:17:43;102586.56;;;4.07;47.35
70256;BME280;57669;52.624;-1.688;2023-04-03T07:22:34;102581.87;;;4.45;46.31
70256;BME280;57669;52.624;-1.688;2023-04-03T07:24:59;102581.80;;;4.12;46.02
70256;BME280;57669;52.624;-1.688;2023-04-03T07:27:24;102586.34;;;2.91;48.45
70256;BME280;57669;52.624;-1.688;2023-04-03T07:29:49;102586.16;;;5.29;44.53
70256;BME280;57669;52.624;-1.688;2023-04-03T07:32:15;102589.03;;;5.59;44.01
70256;BME280;57669;52.624;-1.688;2023-04-03T07:37:05;102591.93;;;3.42;47.28
70256;BME280;57669;52.624;-1.688;2023-04-03T07:39:31;102587.73;;;4.34;45.23
70256;BME280;57669;52.624;-1.688;2023-04-03T07:41:56;102587.40;;;4.80;44.54
70256;BME280;57669;52.624;-1.688;2023-04-03T07:44:21;102585.83;;;3.47;46.49
70256;BME280;57669;52.624;-1.688;2023-04-03T07:46:47;102586.77;;;3.97;46.44
70256;BME280;57669;52.624;-1.688;2023-04-03T07:49:12;102590.31;;;4.80;44.69
70256;BME280;57669;52.624;-1.688;2023-04-03T07:51:37;102588.41;;;4.61;45.37
70256;BME280;57669;52.624;-1.688;2023-04-03T07:56:27;102586.97;;;4.95;44.94
70256;BME280;57669;52.624;-1.688;2023-04-03T07:58:52;102582.63;;;4.30;47.24
70256;BME280;57669;52.624;-1.688;2023-04-03T08:01:18;102582.13;;;5.94;43.13
70256;BME280;57669;52.624;-1.688;2023-04-03T08:03:43;102576.38;;;4.50;46.60
70256;BME280;57669;52.624;-1.688;2023-04-03T08:06:19;102576.63;;;4.67;47.55
70256;BME280;57669;52.624;-1.688;2023-04-03T08:08:35;102576.90;;;3.94;46.71
70256;BME280;57669;52.624;-1.688;2023-04-03T08:11:01;102576.73;;;4.33;47.74
70256;BME280;57669;52.624;-1.688;2023-04-03T08:13:26;102581.39;;;6.08;43.89
70256;BME280;57669;52.624;-1.688;2023-04-03T08:15:50;102579.14;;;4.49;47.10
70256;BME280;57669;52.624;-1.688;2023-04-03T08:18:16;102579.84;;;3.28;48.92
70256;BME280;57669;52.624;-1.688;2023-04-03T08:20:41;102578.68;;;5.07;46.39
70256;BME280;57669;52.624;-1.688;2023-04-03T08:23:06;102582.30;;;2.80;49.89
70256;BME280;57669;52.624;-1.688;2023-04-03T08:25:41;102580.23;;;5.08;46.18
70256;BME280;57669;52.624;-1.688;2023-04-03T08:27:56;102579.14;;;6.98;41.72
70256;BME280;57669;52.624;-1.688;2023-04-03T08:30:21;102581.18;;;5.17;45.34
70256;BME280;57669;52.624;-1.688;2023-04-03T08:32:46;102574.87;;;4.73;45.54
70256;BME280;57669;52.624;-1.688;2023-04-03T08:35:12;102574.39;;;3.38;48.98
70256;BME280;57669;52.624;-1.688;2023-04-03T08:37:36;102578.71;;;2.69;52.06
70256;BME280;57669;52.624;-1.688;2023-04-03T08:40:03;102578.50;;;2.72;51.84
70256;BME280;57669;52.624;-1.688;2023-04-03T08:42:37;102578.86;;;2.88;51.23
70256;BME280;57669;52.624;-1.688;2023-04-03T08:45:04;102583.04;;;3.57;50.74
70256;BME280;57669;52.624;-1.688;2023-04-03T08:47:23;102585.63;;;2.34;52.59
70256;BME280;57669;52.624;-1.688;2023-04-03T08:49:45;102581.25;;;2.96;52.07
70256;BME280;57669;52.624;-1.688;2023-04-03T08:52:11;102590.27;;;4.00;49.22
70256;BME280;57669;52.624;-1.688;2023-04-03T08:54:37;102588.37;;;4.26;48.11
70256;BME280;57669;52.624;-1.688;2023-04-03T08:57:00;102596.78;;;3.21;48.67
70256;BME280;57669;52.624;-1.688;2023-04-03T08:59:28;102594.77;;;2.96;50.84
70256;BME280;57669;52.624;-1.688;2023-04-03T09:01:49;102596.09;;;2.96;50.60
70256;BME280;57669;52.624;-1.688;2023-04-03T09:04:16;102596.85;;;3.39;49.56
70256;BME280;57669;52.624;-1.688;2023-04-03T09:06:42;102594.89;;;2.49;50.53
70256;BME280;57669;52.624;-1.688;2023-04-03T09:09:12;102595.07;;;3.24;49.51
70256;BME280;57669;52.624;-1.688;2023-04-03T09:11:39;102594.01;;;3.04;49.77
70256;BME280;57669;52.624;-1.688;2023-04-03T09:14:00;102592.89;;;2.74;51.24
70256;BME280;57669;52.624;-1.688;2023-04-03T09:16:31;102591.15;;;2.65;51.55
70256;BME280;57669;52.624;-1.688;2023-04-03T09:18:54;102594.33;;;1.98;52.37
70256;BME280;57669;52.624;-1.688;2023-04-03T09:21:17;102586.75;;;2.53;51.02
70256;BME280;57669;52.624;-1.688;2023-04-03T09:23:42;102583.53;;;2.94;48.93
70256;BME280;57669;52.624;-1.688;2023-04-03T09:26:05;102582.94;;;4.05;47.47
70256;BME280;57669;52.624;-1.688;2023-04-03T09:28:28;102580.19;;;2.69;50.51
70256;BME280;57669;52.624;-1.688;2023-04-03T09:30:52;102579.92;;;3.62;48.80
70256;BME280;57669;52.624;-1.688;2023-04-03T09:33:18;102580.80;;;3.63;47.50
70256;BME280;57669;52.624;-1.688;2023-04-03T09:35:43;102577.30;;;3.30;48.75
70256;BME280;57669;52.624;-1.688;2023-04-03T09:38:16;102580.16;;;5.58;44.07
70256;BME280;57669;52.624;-1.688;2023-04-03T09:40:35;102576.24;;;4.05;45.55
70256;BME280;57669;52.624;-1.688;2023-04-03T09:43:00;102570.95;;;5.67;43.55
70256;BME280;57669;52.624;-1.688;2023-04-03T09:45:25;102570.96;;;4.98;42.91
70256;BME280;57669;52.624;-1.688;2023-04-03T09:47:48;102567.25;;;4.84;43.32
70256;BME280;57669;52.624;-1.688;2023-04-03T09:50:19;102576.78;;;3.63;44.58
70256;BME280;57669;52.624;-1.688;2023-04-03T09:52:39;102566.90;;;4.23;44.72
70256;BME280;57669;52.624;-1.688;2023-04-03T09:57:33;102560.45;;;5.22;44.05
70256;BME280;57669;52.624;-1.688;2023-04-03T09:59:58;102560.42;;;5.17;43.46
70256;BME280;57669;52.624;-1.688;2023-04-03T10:02:30;102556.68;;;4.73;44.99
70256;BME280;57669;52.624;-1.688;2023-04-03T10:04:44;102559.55;;;3.59;47.57
70256;BME280;57669;52.624;-1.688;2023-04-03T10:09:34;102554.77;;;7.56;40.76
70256;BME280;57669;52.624;-1.688;2023-04-03T10:12:02;102557.54;;;8.38;36.52
70256;BME280;57669;52.624;-1.688;2023-04-03T10:14:25;102559.12;;;7.90;37.32
70256;BME280;57669;52.624;-1.688;2023-04-03T10:16:58;102557.72;;;7.14;38.62
70256;BME280;57669;52.624;-1.688;2023-04-03T10:21:46;102545.94;;;8.28;36.23
70256;BME280;57669;52.624;-1.688;2023-04-03T10:24:11;102543.81;;;12.58;29.85
70256;BME280;57669;52.624;-1.688;2023-04-03T10:26:39;102550.33;;;8.41;34.06
70256;BME280;57669;52.624;-1.688;2023-04-03T10:29:04;102551.02;;;6.03;39.39
70256;BME280;57669;52.624;-1.688;2023-04-03T10:31:29;102551.44;;;8.53;37.19
70256;BME280;57669;52.624;-1.688;2023-04-03T10:33:57;102552.99;;;9.48;34.40
70256;BME280;57669;52.624;-1.688;2023-04-03T10:36:25;102546.68;;;7.17;36.83
70256;BME280;57669;52.624;-1.688;2023-04-03T10:38:51;102542.52;;;9.35;35.15
70256;BME280;57669;52.624;-1.688;2023-04-03T10:41:12;102543.76;;;7.83;37.05
70256;BME280;57669;52.624;-1.688;2023-04-03T10:43:36;102538.62;;;9.10;35.53
70256;BME280;57669;52.624;-1.688;2023-04-03T10:46:02;102540.06;;;7.11;38.12
70256;BME280;57669;52.624;-1.688;2023-04-03T10:48:32;102542.31;;;6.27;40.17
70256;BME280;57669;52.624;-1.688;2023-04-03T10:50:52;102541.79;;;8.20;37.31
70256;BME280;57669;52.624;-1.688;2023-04-03T10:53:20;102534.51;;;8.33;37.16
70256;BME280;57669;52.624;-1.688;2023-04-03T10:55:46;102532.16;;;8.06;37.58
70256;BME280;57669;52.624;-1.688;2023-04-03T10:58:05;102535.21;;;7.67;38.80
70256;BME280;57669;52.624;-1.688;2023-04-03T11:00:35;102528.10;;;7.32;39.52
70256;BME280;57669;52.624;-1.688;2023-04-03T11:02:58;102527.15;;;7.95;38.35
70256;BME280;57669;52.624;-1.688;2023-04-03T11:05:28;102530.42;;;5.29;40.25
70256;BME280;57669;52.624;-1.688;2023-04-03T11:07:51;102523.78;;;5.43;41.73
70256;BME280;57669;52.624;-1.688;2023-04-03T11:10:15;102519.27;;;7.49;38.92
70256;BME280;57669;52.624;-1.688;2023-04-03T11:12:42;102526.64;;;6.86;39.21
70256;BME280;57669;52.624;-1.688;2023-04-03T11:15:05;102524.16;;;7.53;37.93
70256;BME280;57669;52.624;-1.688;2023-04-03T11:17:34;102526.10;;;7.01;39.59
70256;BME280;57669;52.624;-1.688;2023-04-03T11:20:01;102522.17;;;6.26;40.40
70256;BME280;57669;52.624;-1.688;2023-04-03T11:22:23;102516.05;;;6.92;39.42
70256;BME280;57669;52.624;-1.688;2023-04-03T11:24:54;102516.67;;;6.50;40.42
70256;BME280;57669;52.624;-1.688;2023-04-03T11:27:17;102511.94;;;7.44;38.71
70256;BME280;57669;52.624;-1.688;2023-04-03T11:29:38;102508.56;;;7.52;38.13
70256;BME280;57669;52.624;-1.688;2023-04-03T11:32:09;102501.14;;;8.09;36.66
70256;BME280;57669;52.624;-1.688;2023-04-03T11:34:33;102504.65;;;7.48;37.42
70256;BME280;57669;52.624;-1.688;2023-04-03T11:36:55;102505.95;;;8.74;34.56
70256;BME280;57669;52.624;-1.688;2023-04-03T11:39:22;102502.91;;;9.35;34.04
70256;BME280;57669;52.624;-1.688;2023-04-03T11:41:44;102504.40;;;6.96;37.47
70256;BME280;57669;52.624;-1.688;2023-04-03T11:49:01;102503.40;;;7.76;36.34
70256;BME280;57669;52.624;-1.688;2023-04-03T11:51:39;102493.58;;;9.48;33.96
70256;BME280;57669;52.624;-1.688;2023-04-03T11:53:53;102489.57;;;8.19;35.03
70256;BME280;57669;52.624;-1.688;2023-04-03T11:56:27;102487.84;;;8.71;34.46
70256;BME280;57669;52.624;-1.688;2023-04-03T12:01:11;102484.01;;;9.59;33.49
70256;BME280;57669;52.624;-1.688;2023-04-03T12:08:29;102476.91;;;8.31;37.46
70256;BME280;57669;52.624;-1.688;2023-04-03T12:13:19;102475.77;;;9.54;34.47
70256;BME280;57669;52.624;-1.688;2023-04-03T12:15:52;102470.75;;;8.90;35.60
70256;BME280;57669;52.624;-1.688;2023-04-03T12:23:07;102457.80;;;9.79;33.02
70256;BME280;57669;52.624;-1.688;2023-04-03T12:27:53;102454.85;;;11.69;28.98
70256;BME280;57669;52.624;-1.688;2023-04-03T12:30:22;102452.72;;;10.59;31.41
70256;BME280;57669;52.624;-1.688;2023-04-03T12:32:54;102450.25;;;10.77;30.90
70256;BME280;57669;52.624;-1.688;2023-04-03T12:35:17;102450.58;;;10.45;31.44
70256;BME280;57669;52.624;-1.688;2023-04-03T12:37:49;102448.48;;;10.58;31.40
70256;BME280;57669;52.624;-1.688;2023-04-03T12:40:09;102445.01;;;11.51;30.76
70256;BME280;57669;52.624;-1.688;2023-04-03T12:42:35;102441.73;;;13.30;28.01
70256;BME280;57669;52.624;-1.688;2023-04-03T12:44:58;102423.96;;;14.44;26.92
70256;BME280;57669;52.624;-1.688;2023-04-03T12:47:25;102419.61;;;10.82;30.34
70256;BME280;57669;52.624;-1.688;2023-04-03T12:49:44;102419.31;;;11.50;30.80
70256;BME280;57669;52.624;-1.688;2023-04-03T12:52:17;102420.86;;;8.93;33.37
70256;BME280;57669;52.624;-1.688;2023-04-03T12:54:37;102421.04;;;10.29;32.96
70256;BME280;57669;52.624;-1.688;2023-04-03T12:57:10;102418.37;;;9.47;33.71
70256;BME280;57669;52.624;-1.688;2023-04-03T12:59:28;102419.68;;;10.09;34.11
70256;BME280;57669;52.624;-1.688;2023-04-03T13:01:54;102420.86;;;10.55;32.67
70256;BME280;57669;52.624;-1.688;2023-04-03T13:04:19;102422.46;;;12.59;29.57
70256;BME280;57669;52.624;-1.688;2023-04-03T13:06:44;102411.63;;;11.23;30.73
70256;BME280;57669;52.624;-1.688;2023-04-03T13:09:18;102413.12;;;11.38;29.96
70256;BME280;57669;52.624;-1.688;2023-04-03T13:11:39;102409.19;;;12.20;29.10
70256;BME280;57669;52.624;-1.688;2023-04-03T13:16:28;102395.82;;;16.92;24.39
70256;BME280;57669;52.624;-1.688;2023-04-03T13:18:55;102403.05;;;12.37;28.78
70256;BME280;57669;52.624;-1.688;2023-04-03T13:21:21;102398.66;;;12.02;28.40
70256;BME280;57669;52.624;-1.688;2023-04-03T13:23:47;102390.65;;;11.61;29.04
70256;BME280;57669;52.624;-1.688;2023-04-03T13:26:10;102391.51;;;12.55;28.21
70256;BME280;57669;52.624;-1.688;2023-04-03T13:28:38;102384.41;;;12.55;27.26
70256;BME280;57669;52.624;-1.688;2023-04-03T13:31:06;102378.03;;;12.18;28.82
70256;BME280;57669;52.624;-1.688;2023-04-03T13:33:30;102363.18;;;13.78;28.05